sensor_id;sensor_type;location;lat;lon;timestamp;temperature;humidity
49222;DHT22;35047;37.588;-122.048;2023-04-06T00:02:22;22.10;48.30
49222;DHT22;35047;37.588;-122.048;2023-04-06T00:04:49;22.10;48.10
49222;DHT22;35047;37.588;-122.048;2023-04-06T00:07:15;22.10;47.70
49222;DHT22;35047;37.588;-122.048;2023-04-06T00:09:42;22.00;48.40
49222;DHT22;35047;37.588;-122.048;2023-04-06T00:12:08;21.90;48.40
49222;DHT22;35047;37.588;-122.048;2023-04-06T00:14:35;21.80;49.40
49222;DHT22;35047;37.588;-122.048;2023-04-06T00:17:01;21.70;49.50
49222;DHT22;35047;37.588;-122.048;2023-04-06T00:19:28;21.70;49.40
49222;DHT22;35047;37.588;-122.048;2023-04-06T00:21:55;21.70;49.80
49222;DHT22;35047;37.588;-122.048;2023-04-06T00:24:21;21.70;49.50
49222;DHT22;35047;37.588;-122.048;2023-04-06T00:26:48;21.70;49.70
49222;DHT22;35047;37.588;-122.048;2023-04-06T00:29:14;21.60;50.10
49222;DHT22;35047;37.588;-122.048;2023-04-06T00:31:41;21.50;50.40
49222;DHT22;35047;37.588;-122.048;2023-04-06T00:34:07;21.40;50.60
49222;DHT22;35047;37.588;-122.048;2023-04-06T00:36:34;21.40;51.20
49222;DHT22;35047;37.588;-122.048;2023-04-06T00:39:00;21.50;50.70
49222;DHT22;35047;37.588;-122.048;2023-04-06T00:41:27;21.50;50.70
49222;DHT22;35047;37.588;-122.048;2023-04-06T00:43:54;21.50;50.20
49222;DHT22;35047;37.588;-122.048;2023-04-06T00:46:21;21.50;50.10
49222;DHT22;35047;37.588;-122.048;2023-04-06T00:48:47;21.40;50.70
49222;DHT22;35047;37.588;-122.048;2023-04-06T00:51:13;21.40;51.00
49222;DHT22;35047;37.588;-122.048;2023-04-06T00:53:40;21.30;51.80
49222;DHT22;35047;37.588;-122.048;2023-04-06T00:56:07;21.30;51.60
49222;DHT22;35047;37.588;-122.048;2023-04-06T00:58:36;21.30;51.70
49222;DHT22;35047;37.588;-122.048;2023-04-06T01:01:06;21.30;51.60
49222;DHT22;35047;37.588;-122.048;2023-04-06T01:03:33;21.30;51.10
49222;DHT22;35047;37.588;-122.048;2023-04-06T01:05:59;21.40;51.30
49222;DHT22;35047;37.588;-122.048;2023-04-06T01:08:26;21.30;51.30
49222;DHT22;35047;37.588;-122.048;2023-04-06T01:10:52;21.40;51.30
49222;DHT22;35047;37.588;-122.048;2023-04-06T01:13:19;21.40;51.30
49222;DHT22;35047;37.588;-122.048;2023-04-06T01:15:46;21.40;51.60
49222;DHT22;35047;37.588;-122.048;2023-04-06T01:18:13;21.50;51.40
49222;DHT22;35047;37.588;-122.048;2023-04-06T01:20:40;21.50;51.20
49222;DHT22;35047;37.588;-122.048;2023-04-06T01:23:07;21.50;50.80
49222;DHT22;35047;37.588;-122.048;2023-04-06T01:25:34;21.50;50.60
49222;DHT22;35047;37.588;-122.048;2023-04-06T01:28:00;21.50;50.00
49222;DHT22;35047;37.588;-122.048;2023-04-06T01:30:27;21.50;49.80
49222;DHT22;35047;37.588;-122.048;2023-04-06T01:32:53;21.50;50.10
49222;DHT22;35047;37.588;-122.048;2023-04-06T01:35:21;21.60;50.50
49222;DHT22;35047;37.588;-122.048;2023-04-06T01:37:48;21.60;50.80
49222;DHT22;35047;37.588;-122.048;2023-04-06T01:40:14;21.70;51.10
49222;DHT22;35047;37.588;-122.048;2023-04-06T01:42:42;21.80;50.70
49222;DHT22;35047;37.588;-122.048;2023-04-06T01:45:09;21.90;50.70
49222;DHT22;35047;37.588;-122.048;2023-04-06T01:47:35;21.80;50.60
49222;DHT22;35047;37.588;-122.048;2023-04-06T01:50:02;21.70;51.00
49222;DHT22;35047;37.588;-122.048;2023-04-06T01:52:33;21.70;50.70
49222;DHT22;35047;37.588;-122.048;2023-04-06T01:55:00;21.60;51.00
49222;DHT22;35047;37.588;-122.048;2023-04-06T01:57:26;21.50;51.40
49222;DHT22;35047;37.588;-122.048;2023-04-06T01:59:53;21.40;51.20
49222;DHT22;35047;37.588;-122.048;2023-04-06T02:02:19;21.30;51.60
49222;DHT22;35047;37.588;-122.048;2023-04-06T02:04:46;21.30;52.00
49222;DHT22;35047;37.588;-122.048;2023-04-06T02:07:12;21.10;52.30
49222;DHT22;35047;37.588;-122.048;2023-04-06T02:09:39;20.90;52.80
49222;DHT22;35047;37.588;-122.048;2023-04-06T02:12:05;20.70;53.00
49222;DHT22;35047;37.588;-122.048;2023-04-06T02:14:33;20.50;53.20
49222;DHT22;35047;37.588;-122.048;2023-04-06T02:16:59;20.40;53.80
49222;DHT22;35047;37.588;-122.048;2023-04-06T02:19:26;20.30;54.20
49222;DHT22;35047;37.588;-122.048;2023-04-06T02:21:52;20.20;54.40
49222;DHT22;35047;37.588;-122.048;2023-04-06T02:24:19;20.00;54.60
49222;DHT22;35047;37.588;-122.048;2023-04-06T02:26:46;19.90;55.30
49222;DHT22;35047;37.588;-122.048;2023-04-06T02:29:12;19.80;55.70
49222;DHT22;35047;37.588;-122.048;2023-04-06T02:31:40;19.70;55.90
49222;DHT22;35047;37.588;-122.048;2023-04-06T02:34:06;19.70;56.20
49222;DHT22;35047;37.588;-122.048;2023-04-06T02:36:33;19.60;56.60
49222;DHT22;35047;37.588;-122.048;2023-04-06T02:39:00;19.50;56.70
49222;DHT22;35047;37.588;-122.048;2023-04-06T02:41:29;19.50;56.90
49222;DHT22;35047;37.588;-122.048;2023-04-06T02:43:56;19.30;57.20
49222;DHT22;35047;37.588;-122.048;2023-04-06T02:46:22;19.20;57.80
49222;DHT22;35047;37.588;-122.048;2023-04-06T02:48:49;19.00;58.20
49222;DHT22;35047;37.588;-122.048;2023-04-06T02:51:15;19.00;58.50
49222;DHT22;35047;37.588;-122.048;2023-04-06T02:53:42;18.90;58.70
49222;DHT22;35047;37.588;-122.048;2023-04-06T02:56:08;18.90;59.10
49222;DHT22;35047;37.588;-122.048;2023-04-06T02:58:35;18.80;59.30
49222;DHT22;35047;37.588;-122.048;2023-04-06T03:01:01;18.70;59.20
49222;DHT22;35047;37.588;-122.048;2023-04-06T03:03:28;18.70;59.40
49222;DHT22;35047;37.588;-122.048;2023-04-06T03:05:54;18.60;59.40
49222;DHT22;35047;37.588;-122.048;2023-04-06T03:08:22;18.60;59.60
49222;DHT22;35047;37.588;-122.048;2023-04-06T03:10:48;18.50;59.80
49222;DHT22;35047;37.588;-122.048;2023-04-06T03:13:15;18.50;59.90
49222;DHT22;35047;37.588;-122.048;2023-04-06T03:15:41;18.50;60.30
49222;DHT22;35047;37.588;-122.048;2023-04-06T03:18:08;18.40;60.50
49222;DHT22;35047;37.588;-122.048;2023-04-06T03:20:41;18.30;60.50
49222;DHT22;35047;37.588;-122.048;2023-04-06T03:23:08;16.90;63.40
49222;DHT22;35047;37.588;-122.048;2023-04-06T03:25:34;15.70;67.30
49222;DHT22;35047;37.588;-122.048;2023-04-06T03:28:01;14.80;69.90
49222;DHT22;35047;37.588;-122.048;2023-04-06T03:30:27;15.30;70.50
49222;DHT22;35047;37.588;-122.048;2023-04-06T03:32:55;15.80;68.90
49222;DHT22;35047;37.588;-122.048;2023-04-06T03:35:21;16.10;68.60
49222;DHT22;35047;37.588;-122.048;2023-04-06T03:37:49;16.50;67.70
49222;DHT22;35047;37.588;-122.048;2023-04-06T03:40:15;17.00;66.00
49222;DHT22;35047;37.588;-122.048;2023-04-06T03:42:42;17.10;65.90
49222;DHT22;35047;37.588;-122.048;2023-04-06T03:45:09;17.30;65.50
49222;DHT22;35047;37.588;-122.048;2023-04-06T03:47:36;17.60;64.60
49222;DHT22;35047;37.588;-122.048;2023-04-06T03:50:02;17.80;63.80
49222;DHT22;35047;37.588;-122.048;2023-04-06T03:52:29;18.20;63.30
49222;DHT22;35047;37.588;-122.048;2023-04-06T03:54:55;18.50;61.10
49222;DHT22;35047;37.588;-122.048;2023-04-06T03:57:22;18.00;62.70
49222;DHT22;35047;37.588;-122.048;2023-04-06T03:59:48;17.00;64.20
49222;DHT22;35047;37.588;-122.048;2023-04-06T04:02:15;16.70;65.40
49222;DHT22;35047;37.588;-122.048;2023-04-06T04:04:41;16.30;67.60
49222;DHT22;35047;37.588;-122.048;2023-04-06T04:07:08;16.10;67.90
49222;DHT22;35047;37.588;-122.048;2023-04-06T04:09:34;16.30;69.00
49222;DHT22;35047;37.588;-122.048;2023-04-06T04:12:01;17.00;66.60
49222;DHT22;35047;37.588;-122.048;2023-04-06T04:14:27;16.50;66.80
49222;DHT22;35047;37.588;-122.048;2023-04-06T04:16:54;16.60;66.60
49222;DHT22;35047;37.588;-122.048;2023-04-06T04:19:20;16.40;67.80
49222;DHT22;35047;37.588;-122.048;2023-04-06T04:21:47;16.50;67.90
49222;DHT22;35047;37.588;-122.048;2023-04-06T04:24:15;16.70;67.90
49222;DHT22;35047;37.588;-122.048;2023-04-06T04:26:41;16.50;66.20
49222;DHT22;35047;37.588;-122.048;2023-04-06T04:29:08;17.20;67.00
49222;DHT22;35047;37.588;-122.048;2023-04-06T04:31:35;17.40;63.70
49222;DHT22;35047;37.588;-122.048;2023-04-06T04:34:01;16.80;65.50
49222;DHT22;35047;37.588;-122.048;2023-04-06T04:36:29;16.90;65.90
49222;DHT22;35047;37.588;-122.048;2023-04-06T04:38:56;17.30;64.20
49222;DHT22;35047;37.588;-122.048;2023-04-06T04:41:23;17.50;63.90
49222;DHT22;35047;37.588;-122.048;2023-04-06T04:43:49;17.30;63.40
49222;DHT22;35047;37.588;-122.048;2023-04-06T04:46:16;16.70;66.80
49222;DHT22;35047;37.588;-122.048;2023-04-06T04:48:42;16.90;65.40
49222;DHT22;35047;37.588;-122.048;2023-04-06T04:51:08;16.70;65.90
49222;DHT22;35047;37.588;-122.048;2023-04-06T04:53:35;17.30;65.60
49222;DHT22;35047;37.588;-122.048;2023-04-06T04:56:02;17.50;63.20
49222;DHT22;35047;37.588;-122.048;2023-04-06T04:58:29;17.20;66.10
49222;DHT22;35047;37.588;-122.048;2023-04-06T05:00:56;19.00;62.30
49222;DHT22;35047;37.588;-122.048;2023-04-06T05:03:24;20.30;59.20
49222;DHT22;35047;37.588;-122.048;2023-04-06T05:05:50;21.10;56.90
49222;DHT22;35047;37.588;-122.048;2023-04-06T05:08:17;21.40;55.70
49222;DHT22;35047;37.588;-122.048;2023-04-06T05:10:44;21.50;55.30
49222;DHT22;35047;37.588;-122.048;2023-04-06T05:13:11;21.30;55.30
49222;DHT22;35047;37.588;-122.048;2023-04-06T05:15:38;21.10;55.80
49222;DHT22;35047;37.588;-122.048;2023-04-06T05:18:08;20.80;56.50
49222;DHT22;35047;37.588;-122.048;2023-04-06T05:20:35;20.40;57.10
49222;DHT22;35047;37.588;-122.048;2023-04-06T05:23:02;20.10;57.90
49222;DHT22;35047;37.588;-122.048;2023-04-06T05:25:28;19.80;58.70
49222;DHT22;35047;37.588;-122.048;2023-04-06T05:27:55;19.40;59.30
49222;DHT22;35047;37.588;-122.048;2023-04-06T05:30:22;19.00;60.20
49222;DHT22;35047;37.588;-122.048;2023-04-06T05:32:48;18.80;60.90
49222;DHT22;35047;37.588;-122.048;2023-04-06T05:35:15;18.50;61.60
49222;DHT22;35047;37.588;-122.048;2023-04-06T05:37:43;18.30;62.10
49222;DHT22;35047;37.588;-122.048;2023-04-06T05:40:09;18.10;62.40
49222;DHT22;35047;37.588;-122.048;2023-04-06T05:42:39;18.00;63.00
49222;DHT22;35047;37.588;-122.048;2023-04-06T05:45:08;17.80;63.40
49222;DHT22;35047;37.588;-122.048;2023-04-06T05:47:34;17.80;63.50
49222;DHT22;35047;37.588;-122.048;2023-04-06T05:50:01;17.70;63.60
49222;DHT22;35047;37.588;-122.048;2023-04-06T05:52:28;17.40;64.40
49222;DHT22;35047;37.588;-122.048;2023-04-06T05:54:54;17.40;64.70
49222;DHT22;35047;37.588;-122.048;2023-04-06T05:57:20;17.30;65.30
49222;DHT22;35047;37.588;-122.048;2023-04-06T05:59:48;17.30;65.20
49222;DHT22;35047;37.588;-122.048;2023-04-06T06:02:14;17.20;65.40
49222;DHT22;35047;37.588;-122.048;2023-04-06T06:04:41;17.10;65.70
49222;DHT22;35047;37.588;-122.048;2023-04-06T06:07:07;17.10;65.90
49222;DHT22;35047;37.588;-122.048;2023-04-06T06:09:34;17.10;66.20
49222;DHT22;35047;37.588;-122.048;2023-04-06T06:12:00;17.00;66.20
49222;DHT22;35047;37.588;-122.048;2023-04-06T06:14:27;17.00;66.40
49222;DHT22;35047;37.588;-122.048;2023-04-06T06:16:56;17.00;66.50
49222;DHT22;35047;37.588;-122.048;2023-04-06T06:19:23;16.90;66.60
49222;DHT22;35047;37.588;-122.048;2023-04-06T06:21:49;16.90;66.70
49222;DHT22;35047;37.588;-122.048;2023-04-06T06:24:16;16.90;67.10
49222;DHT22;35047;37.588;-122.048;2023-04-06T06:26:42;16.80;67.00
49222;DHT22;35047;37.588;-122.048;2023-04-06T06:29:09;16.80;67.10
49222;DHT22;35047;37.588;-122.048;2023-04-06T06:31:35;16.80;67.20
49222;DHT22;35047;37.588;-122.048;2023-04-06T06:34:02;16.80;67.20
49222;DHT22;35047;37.588;-122.048;2023-04-06T06:36:29;16.80;67.30
49222;DHT22;35047;37.588;-122.048;2023-04-06T06:38:57;16.70;67.20
49222;DHT22;35047;37.588;-122.048;2023-04-06T06:41:25;16.70;67.30
49222;DHT22;35047;37.588;-122.048;2023-04-06T06:43:51;16.70;67.30
49222;DHT22;35047;37.588;-122.048;2023-04-06T06:46:18;16.80;67.30
49222;DHT22;35047;37.588;-122.048;2023-04-06T06:48:44;16.70;67.20
49222;DHT22;35047;37.588;-122.048;2023-04-06T06:51:11;16.70;67.30
49222;DHT22;35047;37.588;-122.048;2023-04-06T06:53:38;16.80;67.30
49222;DHT22;35047;37.588;-122.048;2023-04-06T06:56:05;16.80;67.10
49222;DHT22;35047;37.588;-122.048;2023-04-06T06:58:32;16.80;67.20
49222;DHT22;35047;37.588;-122.048;2023-04-06T07:00:59;17.00;66.80
49222;DHT22;35047;37.588;-122.048;2023-04-06T07:03:26;17.00;66.30
49222;DHT22;35047;37.588;-122.048;2023-04-06T07:05:53;17.10;66.10
49222;DHT22;35047;37.588;-122.048;2023-04-06T07:08:21;17.10;65.70
49222;DHT22;35047;37.588;-122.048;2023-04-06T07:10:48;17.10;66.10
49222;DHT22;35047;37.588;-122.048;2023-04-06T07:13:16;17.00;66.10
49222;DHT22;35047;37.588;-122.048;2023-04-06T07:15:48;17.00;65.90
49222;DHT22;35047;37.588;-122.048;2023-04-06T07:18:14;17.00;65.80
49222;DHT22;35047;37.588;-122.048;2023-04-06T07:20:41;16.90;66.20
49222;DHT22;35047;37.588;-122.048;2023-04-06T07:23:07;16.80;66.40
49222;DHT22;35047;37.588;-122.048;2023-04-06T07:25:34;16.70;66.40
49222;DHT22;35047;37.588;-122.048;2023-04-06T07:28:01;16.70;66.50
49222;DHT22;35047;37.588;-122.048;2023-04-06T07:30:27;16.60;66.80
49222;DHT22;35047;37.588;-122.048;2023-04-06T07:32:55;16.60;66.90
49222;DHT22;35047;37.588;-122.048;2023-04-06T07:35:23;16.50;67.30
49222;DHT22;35047;37.588;-122.048;2023-04-06T07:37:50;16.50;67.10
49222;DHT22;35047;37.588;-122.048;2023-04-06T07:40:16;16.40;67.10
49222;DHT22;35047;37.588;-122.048;2023-04-06T07:42:44;16.40;67.00
49222;DHT22;35047;37.588;-122.048;2023-04-06T07:45:10;16.30;67.40
49222;DHT22;35047;37.588;-122.048;2023-04-06T07:47:37;16.30;67.30
49222;DHT22;35047;37.588;-122.048;2023-04-06T07:50:06;16.30;67.80
49222;DHT22;35047;37.588;-122.048;2023-04-06T07:52:32;16.20;67.60
49222;DHT22;35047;37.588;-122.048;2023-04-06T07:54:59;16.20;67.70
49222;DHT22;35047;37.588;-122.048;2023-04-06T07:57:26;16.20;67.70
49222;DHT22;35047;37.588;-122.048;2023-04-06T07:59:52;16.20;67.50
49222;DHT22;35047;37.588;-122.048;2023-04-06T08:02:19;16.10;67.50
49222;DHT22;35047;37.588;-122.048;2023-04-06T08:04:45;16.10;67.70
49222;DHT22;35047;37.588;-122.048;2023-04-06T08:07:12;16.10;68.00
49222;DHT22;35047;37.588;-122.048;2023-04-06T08:09:38;16.00;68.00
49222;DHT22;35047;37.588;-122.048;2023-04-06T08:12:05;16.00;68.30
49222;DHT22;35047;37.588;-122.048;2023-04-06T08:14:31;15.90;68.30
49222;DHT22;35047;37.588;-122.048;2023-04-06T08:16:58;15.90;68.30
49222;DHT22;35047;37.588;-122.048;2023-04-06T08:19:24;15.90;68.90
49222;DHT22;35047;37.588;-122.048;2023-04-06T08:21:51;15.90;68.70
49222;DHT22;35047;37.588;-122.048;2023-04-06T08:24:17;15.90;68.30
49222;DHT22;35047;37.588;-122.048;2023-04-06T08:26:44;15.90;68.30
49222;DHT22;35047;37.588;-122.048;2023-04-06T08:29:10;15.80;68.20
49222;DHT22;35047;37.588;-122.048;2023-04-06T08:31:37;15.80;68.40
49222;DHT22;35047;37.588;-122.048;2023-04-06T08:34:04;15.80;68.60
49222;DHT22;35047;37.588;-122.048;2023-04-06T08:36:34;15.70;68.50
49222;DHT22;35047;37.588;-122.048;2023-04-06T08:39:00;15.70;68.40
49222;DHT22;35047;37.588;-122.048;2023-04-06T08:41:27;15.70;68.30
49222;DHT22;35047;37.588;-122.048;2023-04-06T08:43:59;15.70;68.30
49222;DHT22;35047;37.588;-122.048;2023-04-06T08:46:28;15.70;68.20
49222;DHT22;35047;37.588;-122.048;2023-04-06T08:48:59;15.70;68.30
49222;DHT22;35047;37.588;-122.048;2023-04-06T08:51:26;15.70;68.60
49222;DHT22;35047;37.588;-122.048;2023-04-06T08:53:54;15.60;68.60
49222;DHT22;35047;37.588;-122.048;2023-04-06T08:56:24;15.50;68.90
49222;DHT22;35047;37.588;-122.048;2023-04-06T08:58:53;15.50;69.00
49222;DHT22;35047;37.588;-122.048;2023-04-06T09:01:40;15.50;68.80
49222;DHT22;35047;37.588;-122.048;2023-04-06T09:04:09;15.50;69.10
49222;DHT22;35047;37.588;-122.048;2023-04-06T09:06:37;15.50;68.90
49222;DHT22;35047;37.588;-122.048;2023-04-06T09:09:04;15.40;69.40
49222;DHT22;35047;37.588;-122.048;2023-04-06T09:11:47;15.40;69.20
49222;DHT22;35047;37.588;-122.048;2023-04-06T09:14:15;15.40;69.20
49222;DHT22;35047;37.588;-122.048;2023-04-06T09:16:44;15.40;69.40
49222;DHT22;35047;37.588;-122.048;2023-04-06T09:19:12;15.40;69.00
49222;DHT22;35047;37.588;-122.048;2023-04-06T09:21:38;15.40;68.90
49222;DHT22;35047;37.588;-122.048;2023-04-06T09:24:08;15.40;68.60
49222;DHT22;35047;37.588;-122.048;2023-04-06T09:26:45;15.40;68.50
49222;DHT22;35047;37.588;-122.048;2023-04-06T09:29:22;15.40;68.50
49222;DHT22;35047;37.588;-122.048;2023-04-06T09:31:50;15.40;68.60
49222;DHT22;35047;37.588;-122.048;2023-04-06T09:34:22;15.30;68.70
49222;DHT22;35047;37.588;-122.048;2023-04-06T09:36:49;15.30;68.90
49222;DHT22;35047;37.588;-122.048;2023-04-06T09:39:21;15.30;69.00
49222;DHT22;35047;37.588;-122.048;2023-04-06T09:41:53;15.30;69.00
49222;DHT22;35047;37.588;-122.048;2023-04-06T09:44:20;15.20;68.80
49222;DHT22;35047;37.588;-122.048;2023-04-06T09:46:47;15.20;69.00
49222;DHT22;35047;37.588;-122.048;2023-04-06T09:49:14;15.20;68.90
49222;DHT22;35047;37.588;-122.048;2023-04-06T09:52:02;15.20;69.10
49222;DHT22;35047;37.588;-122.048;2023-04-06T09:54:29;15.10;69.20
49222;DHT22;35047;37.588;-122.048;2023-04-06T09:57:21;15.10;69.40
49222;DHT22;35047;37.588;-122.048;2023-04-06T10:00:03;15.10;69.20
49222;DHT22;35047;37.588;-122.048;2023-04-06T10:05:57;15.10;69.40
49222;DHT22;35047;37.588;-122.048;2023-04-06T10:08:28;15.10;69.50
49222;DHT22;35047;37.588;-122.048;2023-04-06T10:10:56;15.00;69.50
49222;DHT22;35047;37.588;-122.048;2023-04-06T10:13:24;15.00;69.30
49222;DHT22;35047;37.588;-122.048;2023-04-06T10:15:52;15.00;69.30
49222;DHT22;35047;37.588;-122.048;2023-04-06T10:18:19;15.00;69.30
49222;DHT22;35047;37.588;-122.048;2023-04-06T10:20:57;15.00;70.20
49222;DHT22;35047;37.588;-122.048;2023-04-06T10:23:29;15.00;69.50
49222;DHT22;35047;37.588;-122.048;2023-04-06T10:25:58;15.00;69.70
49222;DHT22;35047;37.588;-122.048;2023-04-06T10:28:29;14.90;69.90
49222;DHT22;35047;37.588;-122.048;2023-04-06T10:30:59;14.90;69.90
49222;DHT22;35047;37.588;-122.048;2023-04-06T10:33:26;14.90;69.80
49222;DHT22;35047;37.588;-122.048;2023-04-06T10:35:53;14.90;70.40
49222;DHT22;35047;37.588;-122.048;2023-04-06T10:38:32;14.90;70.30
49222;DHT22;35047;37.588;-122.048;2023-04-06T10:41:05;14.90;70.60
49222;DHT22;35047;37.588;-122.048;2023-04-06T10:43:38;14.90;71.10
49222;DHT22;35047;37.588;-122.048;2023-04-06T10:46:06;14.90;70.70
49222;DHT22;35047;37.588;-122.048;2023-04-06T10:48:43;14.90;70.40
49222;DHT22;35047;37.588;-122.048;2023-04-06T10:51:16;14.90;70.70
49222;DHT22;35047;37.588;-122.048;2023-04-06T10:53:44;14.90;70.90
49222;DHT22;35047;37.588;-122.048;2023-04-06T10:56:13;14.90;70.90
49222;DHT22;35047;37.588;-122.048;2023-04-06T10:58:50;14.90;71.00
49222;DHT22;35047;37.588;-122.048;2023-04-06T11:01:21;14.90;71.40
49222;DHT22;35047;37.588;-122.048;2023-04-06T11:03:51;14.90;71.60
49222;DHT22;35047;37.588;-122.048;2023-04-06T11:06:26;14.90;71.20
49222;DHT22;35047;37.588;-122.048;2023-04-06T11:08:53;14.90;71.20
49222;DHT22;35047;37.588;-122.048;2023-04-06T11:11:22;14.90;71.50
49222;DHT22;35047;37.588;-122.048;2023-04-06T11:13:56;14.90;71.70
49222;DHT22;35047;37.588;-122.048;2023-04-06T11:16:24;14.90;71.70
49222;DHT22;35047;37.588;-122.048;2023-04-06T11:21:29;14.90;71.60
49222;DHT22;35047;37.588;-122.048;2023-04-06T11:24:18;14.90;71.80
49222;DHT22;35047;37.588;-122.048;2023-04-06T11:26:55;15.00;71.70
49222;DHT22;35047;37.588;-122.048;2023-04-06T11:29:27;14.90;71.70
49222;DHT22;35047;37.588;-122.048;2023-04-06T11:31:59;15.00;71.60
49222;DHT22;35047;37.588;-122.048;2023-04-06T11:34:29;15.00;71.60
49222;DHT22;35047;37.588;-122.048;2023-04-06T11:36:58;15.00;71.70
49222;DHT22;35047;37.588;-122.048;2023-04-06T11:39:26;15.00;71.80
49222;DHT22;35047;37.588;-122.048;2023-04-06T11:41:56;15.00;71.90
49222;DHT22;35047;37.588;-122.048;2023-04-06T11:47:02;15.00;71.80
49222;DHT22;35047;37.588;-122.048;2023-04-06T11:49:30;15.00;71.90
49222;DHT22;35047;37.588;-122.048;2023-04-06T11:51:56;15.00;71.80
49222;DHT22;35047;37.588;-122.048;2023-04-06T11:54:50;15.00;71.90
49222;DHT22;35047;37.588;-122.048;2023-04-06T11:57:18;15.00;71.80
49222;DHT22;35047;37.588;-122.048;2023-04-06T11:59:44;15.00;72.20
49222;DHT22;35047;37.588;-122.048;2023-04-06T12:02:11;14.90;72.40
49222;DHT22;35047;37.588;-122.048;2023-04-06T12:04:38;14.90;72.30
49222;DHT22;35047;37.588;-122.048;2023-04-06T12:07:05;14.90;72.00
49222;DHT22;35047;37.588;-122.048;2023-04-06T12:09:31;14.90;72.00
49222;DHT22;35047;37.588;-122.048;2023-04-06T12:11:59;14.90;71.90
49222;DHT22;35047;37.588;-122.048;2023-04-06T12:14:26;14.90;71.90
49222;DHT22;35047;37.588;-122.048;2023-04-06T12:16:52;14.90;72.10
49222;DHT22;35047;37.588;-122.048;2023-04-06T12:19:19;14.90;72.40
49222;DHT22;35047;37.588;-122.048;2023-04-06T12:21:46;14.80;72.40
49222;DHT22;35047;37.588;-122.048;2023-04-06T12:24:12;14.80;72.20
49222;DHT22;35047;37.588;-122.048;2023-04-06T12:26:39;14.80;72.10
49222;DHT22;35047;37.588;-122.048;2023-04-06T12:29:07;14.80;71.80
49222;DHT22;35047;37.588;-122.048;2023-04-06T12:31:35;14.80;71.40
49222;DHT22;35047;37.588;-122.048;2023-04-06T12:34:04;14.80;71.30
49222;DHT22;35047;37.588;-122.048;2023-04-06T12:36:30;14.80;71.30
49222;DHT22;35047;37.588;-122.048;2023-04-06T12:38:58;14.80;71.30
49222;DHT22;35047;37.588;-122.048;2023-04-06T12:41:27;14.80;71.30
49222;DHT22;35047;37.588;-122.048;2023-04-06T12:43:54;14.80;71.20
49222;DHT22;35047;37.588;-122.048;2023-04-06T12:46:20;14.80;71.00
49222;DHT22;35047;37.588;-122.048;2023-04-06T12:48:47;14.70;71.30
49222;DHT22;35047;37.588;-122.048;2023-04-06T12:51:14;14.70;71.10
49222;DHT22;35047;37.588;-122.048;2023-04-06T12:53:40;14.70;70.90
49222;DHT22;35047;37.588;-122.048;2023-04-06T12:56:14;14.70;70.80
49222;DHT22;35047;37.588;-122.048;2023-04-06T12:58:41;14.60;70.80
49222;DHT22;35047;37.588;-122.048;2023-04-06T13:01:08;14.60;71.00
49222;DHT22;35047;37.588;-122.048;2023-04-06T13:03:35;14.60;71.20
49222;DHT22;35047;37.588;-122.048;2023-04-06T13:06:02;14.60;70.90
49222;DHT22;35047;37.588;-122.048;2023-04-06T13:08:29;14.60;70.70
49222;DHT22;35047;37.588;-122.048;2023-04-06T13:10:57;14.50;70.50
49222;DHT22;35047;37.588;-122.048;2023-04-06T13:13:28;14.50;70.60
49222;DHT22;35047;37.588;-122.048;2023-04-06T13:16:03;14.40;70.90
49222;DHT22;35047;37.588;-122.048;2023-04-06T13:18:31;14.40;71.10
49222;DHT22;35047;37.588;-122.048;2023-04-06T13:20:58;14.40;71.10
49222;DHT22;35047;37.588;-122.048;2023-04-06T13:23:28;14.40;71.20
49222;DHT22;35047;37.588;-122.048;2023-04-06T13:26:05;14.30;71.10
49222;DHT22;35047;37.588;-122.048;2023-04-06T13:28:34;14.30;70.90
49222;DHT22;35047;37.588;-122.048;2023-04-06T13:31:02;14.30;70.80
49222;DHT22;35047;37.588;-122.048;2023-04-06T13:33:29;14.20;70.80
49222;DHT22;35047;37.588;-122.048;2023-04-06T13:35:57;14.20;71.10
49222;DHT22;35047;37.588;-122.048;2023-04-06T13:38:23;14.20;71.10
49222;DHT22;35047;37.588;-122.048;2023-04-06T13:40:50;14.20;71.00
49222;DHT22;35047;37.588;-122.048;2023-04-06T13:43:17;14.20;71.00
49222;DHT22;35047;37.588;-122.048;2023-04-06T13:45:50;14.20;71.30
49222;DHT22;35047;37.588;-122.048;2023-04-06T13:48:19;14.20;71.20
49222;DHT22;35047;37.588;-122.048;2023-04-06T13:50:46;14.20;71.70
49222;DHT22;35047;37.588;-122.048;2023-04-06T13:53:13;14.10;71.30
49222;DHT22;35047;37.588;-122.048;2023-04-06T13:55:41;14.10;71.40
49222;DHT22;35047;37.588;-122.048;2023-04-06T13:58:07;14.20;71.20
49222;DHT22;35047;37.588;-122.048;2023-04-06T14:00:35;14.20;71.40
49222;DHT22;35047;37.588;-122.048;2023-04-06T14:03:05;14.20;71.30
49222;DHT22;35047;37.588;-122.048;2023-04-06T14:05:32;14.20;71.30
49222;DHT22;35047;37.588;-122.048;2023-04-06T14:07:59;14.20;71.60
49222;DHT22;35047;37.588;-122.048;2023-04-06T14:10:26;14.20;71.70
49222;DHT22;35047;37.588;-122.048;2023-04-06T14:12:53;14.10;71.70
49222;DHT22;35047;37.588;-122.048;2023-04-06T14:15:20;14.10;71.80
49222;DHT22;35047;37.588;-122.048;2023-04-06T14:17:47;14.20;71.80
49222;DHT22;35047;37.588;-122.048;2023-04-06T14:20:14;14.10;71.60
49222;DHT22;35047;37.588;-122.048;2023-04-06T14:22:44;14.10;71.70
49222;DHT22;35047;37.588;-122.048;2023-04-06T14:25:11;14.20;71.80
49222;DHT22;35047;37.588;-122.048;2023-04-06T14:27:38;14.20;71.90
49222;DHT22;35047;37.588;-122.048;2023-04-06T14:30:05;14.20;72.10
49222;DHT22;35047;37.588;-122.048;2023-04-06T14:32:33;14.20;72.20
49222;DHT22;35047;37.588;-122.048;2023-04-06T14:35:00;14.20;72.50
49222;DHT22;35047;37.588;-122.048;2023-04-06T14:37:26;14.20;72.60
49222;DHT22;35047;37.588;-122.048;2023-04-06T14:39:53;14.30;73.10
49222;DHT22;35047;37.588;-122.048;2023-04-06T14:42:20;14.30;73.20
49222;DHT22;35047;37.588;-122.048;2023-04-06T14:44:46;14.40;73.30
49222;DHT22;35047;37.588;-122.048;2023-04-06T14:47:14;14.50;73.50
49222;DHT22;35047;37.588;-122.048;2023-04-06T14:49:49;14.50;73.60
49222;DHT22;35047;37.588;-122.048;2023-04-06T14:52:16;14.50;73.50
49222;DHT22;35047;37.588;-122.048;2023-04-06T14:54:42;14.60;74.60
49222;DHT22;35047;37.588;-122.048;2023-04-06T14:57:09;14.60;74.50
49222;DHT22;35047;37.588;-122.048;2023-04-06T14:59:36;14.70;74.50
49222;DHT22;35047;37.588;-122.048;2023-04-06T15:02:03;14.70;74.20